createdAt,value
2019-04-29T00:02:29.100Z,13.51
2019-04-29T00:04:58.991Z,13.35
2019-04-29T00:07:28.747Z,13.26
2019-04-29T00:10:00.570Z,13.32
2019-04-29T00:12:31.383Z,13.12
2019-04-29T00:15:08.516Z,12.93
2019-04-29T00:17:46.041Z,12.93
2019-04-29T00:20:17.607Z,13.11
2019-04-29T00:22:47.427Z,13.16
2019-04-29T00:25:17.255Z,13.19
2019-04-29T00:27:47.157Z,13.09
2019-04-29T00:30:18.728Z,13.13
2019-04-29T00:32:48.593Z,13.16
2019-04-29T00:35:18.347Z,13.28
2019-04-29T00:38:06.108Z,13.29
2019-04-29T00:40:52.664Z,13.27
2019-04-29T00:43:35.967Z,13.12
2019-04-29T00:46:06.273Z,13.05
2019-04-29T00:48:36.235Z,13.15
2019-04-29T00:51:06.047Z,13.12
2019-04-29T00:53:35.971Z,13.01
2019-04-29T00:56:06.340Z,13.04
2019-04-29T00:58:36.176Z,13.01
2019-04-29T01:01:10.522Z,12.92
2019-04-29T01:03:41.282Z,12.85
2019-04-29T01:06:11.113Z,12.75
2019-04-29T01:08:40.926Z,12.68
2019-04-29T01:11:10.664Z,12.61
2019-04-29T01:13:40.477Z,12.70
2019-04-29T01:16:10.286Z,12.74
2019-04-29T01:18:40.196Z,12.76
2019-04-29T01:21:09.974Z,12.66
2019-04-29T01:23:39.725Z,12.53
2019-04-29T01:26:29.061Z,12.61
2019-04-29T01:29:00.479Z,12.65
2019-04-29T01:31:31.429Z,12.80
2019-04-29T01:34:02.858Z,12.88
2019-04-29T01:36:36.997Z,12.81
2019-04-29T01:39:09.177Z,12.81
2019-04-29T01:41:49.911Z,12.75
2019-04-29T01:44:21.312Z,12.64
2019-04-29T01:46:51.255Z,12.59
2019-04-29T01:49:21.166Z,12.55
2019-04-29T01:51:50.981Z,12.47
2019-04-29T01:54:20.844Z,12.49
2019-04-29T01:56:50.610Z,12.52
2019-04-29T01:59:20.543Z,12.62
2019-04-29T02:01:50.319Z,12.78
2019-04-29T02:04:20.214Z,12.81
2019-04-29T02:06:49.942Z,12.83
2019-04-29T02:09:21.381Z,12.83
2019-04-29T02:11:51.213Z,12.68
2019-04-29T02:14:21.182Z,12.56
2019-04-29T02:16:51.008Z,12.56
2019-04-29T02:19:20.873Z,12.54
2019-04-29T02:22:10.737Z,12.45
2019-04-29T02:24:48.946Z,12.35
2019-04-29T02:27:18.767Z,12.29
2019-04-29T02:29:48.610Z,12.27
2019-04-29T02:32:18.346Z,12.28
2019-04-29T02:34:48.255Z,12.23
2019-04-29T02:37:19.650Z,12.11
2019-04-29T02:39:51.278Z,12.08
2019-04-29T02:42:38.750Z,12.16
2019-04-29T02:45:13.145Z,12.08
2019-04-29T02:47:42.917Z,11.99
2019-04-29T02:50:12.831Z,11.96
2019-04-29T02:52:42.590Z,11.91
2019-04-29T02:55:14.315Z,12.04
2019-04-29T02:57:57.876Z,12.14
2019-04-29T03:00:40.976Z,12.17
2019-04-29T03:03:21.671Z,12.16
2019-04-29T03:05:53.224Z,12.21
2019-04-29T03:08:23.046Z,12.21
2019-04-29T03:10:53.073Z,12.25
2019-04-29T03:13:22.991Z,12.24
2019-04-29T03:15:52.844Z,12.20
2019-04-29T03:18:24.856Z,12.19
2019-04-29T03:21:02.294Z,12.13
2019-04-29T03:23:32.186Z,12.07
2019-04-29T03:26:02.082Z,12.10
2019-04-29T03:28:31.884Z,12.14
2019-04-29T03:31:01.731Z,12.05
2019-04-29T03:33:32.497Z,12.04
2019-04-29T03:36:02.453Z,12.06
2019-04-29T03:38:32.277Z,12.11
2019-04-29T03:41:02.049Z,12.11
2019-04-29T03:43:31.875Z,12.14
2019-04-29T03:46:01.911Z,12.16
2019-04-29T03:48:31.832Z,12.16
2019-04-29T03:51:01.965Z,12.16
2019-04-29T03:53:31.813Z,12.32
2019-04-29T03:56:01.855Z,12.51
2019-04-29T03:58:31.873Z,12.51
2019-04-29T04:01:06.448Z,12.57
2019-04-29T04:03:38.904Z,12.74
2019-04-29T04:06:13.353Z,13.02
2019-04-29T04:08:44.851Z,13.34
2019-04-29T04:11:14.831Z,13.47
2019-04-29T04:13:44.676Z,13.61
2019-04-29T04:16:16.221Z,13.74
2019-04-29T04:18:46.101Z,13.93
2019-04-29T04:21:16.022Z,14.07
2019-04-29T04:23:45.975Z,14.14
2019-04-29T04:26:15.872Z,14.19
2019-04-29T04:28:45.685Z,14.43
2019-04-29T04:31:15.563Z,14.44
2019-04-29T04:33:45.508Z,14.56
2019-04-29T04:36:15.307Z,14.78
2019-04-29T04:38:45.028Z,14.83
2019-04-29T04:41:14.789Z,14.97
2019-04-29T04:43:44.683Z,15.20
2019-04-29T04:46:14.676Z,15.47
2019-04-29T04:48:44.511Z,15.67
2019-04-29T04:51:14.288Z,15.73
2019-04-29T04:53:44.161Z,15.76
2019-04-29T04:56:13.943Z,15.92
2019-04-29T04:58:43.788Z,16.15
2019-04-29T05:01:13.675Z,16.25
2019-04-29T05:03:43.487Z,16.49
2019-04-29T05:06:13.587Z,16.88
2019-04-29T05:08:43.335Z,16.84
2019-04-29T05:11:13.305Z,17.30
2019-04-29T05:13:43.052Z,17.80
2019-04-29T05:16:12.943Z,18.38
2019-04-29T05:18:43.044Z,19.03
2019-04-29T05:21:12.875Z,19.54
2019-04-29T05:23:42.863Z,19.75
2019-04-29T05:26:12.737Z,19.97
2019-04-29T05:28:42.493Z,20.29
2019-04-29T05:31:12.358Z,20.84
2019-04-29T05:33:42.230Z,21.12
2019-04-29T05:36:13.627Z,21.32
2019-04-29T05:38:48.116Z,21.57
2019-04-29T05:41:18.412Z,21.95
2019-04-29T05:43:52.633Z,21.67
2019-04-29T05:46:26.822Z,21.49
2019-04-29T05:48:58.295Z,21.73
2019-04-29T05:51:38.548Z,22.27
2019-04-29T05:54:19.010Z,22.58
2019-04-29T05:56:48.219Z,22.73
2019-04-29T05:59:17.953Z,22.92
2019-04-29T06:01:48.941Z,22.69
2019-04-29T06:04:18.822Z,22.32
2019-04-29T06:06:48.849Z,22.21
2019-04-29T06:09:18.874Z,22.34
2019-04-29T06:11:48.777Z,22.52
2019-04-29T06:14:21.925Z,23.08
2019-04-29T06:16:52.844Z,23.52
2019-04-29T06:19:21.614Z,23.64
2019-04-29T06:21:51.574Z,23.08
2019-04-29T06:24:21.474Z,22.85
2019-04-29T06:26:52.232Z,22.50
2019-04-29T06:29:22.105Z,22.64
2019-04-29T06:31:52.239Z,22.67
2019-04-29T06:34:22.090Z,22.11
2019-04-29T06:36:51.855Z,21.94
2019-04-29T06:39:21.738Z,21.62
2019-04-29T06:41:52.666Z,21.54
2019-04-29T06:44:22.715Z,21.22
2019-04-29T06:46:54.428Z,21.29
2019-04-29T06:49:24.130Z,21.38
2019-04-29T06:51:54.015Z,20.75
2019-04-29T06:54:23.920Z,20.34
2019-04-29T06:56:53.733Z,20.32
2019-04-29T06:59:23.621Z,20.64
2019-04-29T07:01:53.499Z,21.18
2019-04-29T07:04:23.448Z,21.44
2019-04-29T07:06:57.423Z,21.49
2019-04-29T07:09:24.940Z,21.77
2019-04-29T07:12:01.111Z,22.65
2019-04-29T07:14:28.411Z,23.35
2019-04-29T07:17:00.781Z,23.65
2019-04-29T07:19:29.550Z,23.87
2019-04-29T07:21:59.483Z,23.78
2019-04-29T07:24:29.335Z,23.43
2019-04-29T07:27:02.694Z,23.17
2019-04-29T07:29:32.729Z,23.13
2019-04-29T07:32:04.727Z,23.41
2019-04-29T07:34:39.199Z,23.62
2019-04-29T07:37:06.291Z,23.30
2019-04-29T07:39:36.048Z,23.10
2019-04-29T07:42:05.903Z,23.32
2019-04-29T07:44:48.775Z,23.75
2019-04-29T07:47:18.044Z,24.21
2019-04-29T07:49:51.421Z,24.51
2019-04-29T07:52:19.401Z,23.69
2019-04-29T07:54:55.084Z,23.28
2019-04-29T07:57:20.831Z,22.72
2019-04-29T07:59:50.509Z,22.78
2019-04-29T08:02:20.324Z,23.36
2019-04-29T08:04:50.091Z,23.58
2019-04-29T08:07:20.086Z,23.64
2019-04-29T08:09:52.316Z,22.99
2019-04-29T08:12:23.355Z,22.44
2019-04-29T08:14:58.131Z,22.29
2019-04-29T08:17:26.386Z,21.96
2019-04-29T08:19:56.125Z,21.74
2019-04-29T08:22:27.832Z,22.01
2019-04-29T08:24:58.613Z,21.33
2019-04-29T08:27:39.752Z,20.98
2019-04-29T08:30:01.212Z,20.86
2019-04-29T08:32:36.363Z,21.19
2019-04-29T08:35:07.012Z,21.00
2019-04-29T08:37:36.847Z,21.04
2019-04-29T08:40:16.207Z,20.70
2019-04-29T08:42:51.926Z,20.17
2019-04-29T08:45:26.424Z,19.83
2019-04-29T08:47:56.319Z,19.37
2019-04-29T08:50:26.216Z,19.84
2019-04-29T08:52:56.036Z,20.03
2019-04-29T08:55:26.634Z,20.32
2019-04-29T08:57:57.457Z,20.56
2019-04-29T09:00:27.386Z,20.42
2019-04-29T09:02:57.349Z,20.39
2019-04-29T09:05:27.117Z,20.31
2019-04-29T09:07:58.767Z,20.61
2019-04-29T09:10:28.518Z,20.25
2019-04-29T09:12:58.405Z,20.27
2019-04-29T09:15:28.239Z,20.68
2019-04-29T09:17:58.118Z,20.46
2019-04-29T09:20:28.012Z,20.31
2019-04-29T09:22:59.559Z,20.52
2019-04-29T09:25:30.965Z,20.77
2019-04-29T09:28:08.500Z,21.24
2019-04-29T09:30:38.839Z,21.26
2019-04-29T09:33:12.962Z,20.89
2019-04-29T09:35:40.643Z,20.61
2019-04-29T09:38:10.555Z,20.30
2019-04-29T09:40:54.682Z,19.95
2019-04-29T09:43:25.982Z,19.99
2019-04-29T09:46:06.231Z,20.11
2019-04-29T09:48:36.134Z,20.20
2019-04-29T09:51:16.599Z,19.92
2019-04-29T09:53:37.510Z,19.48
2019-04-29T09:56:07.354Z,19.59
2019-04-29T09:58:37.236Z,19.48
2019-04-29T10:01:08.724Z,19.37
2019-04-29T10:03:53.190Z,19.12
2019-04-29T10:06:30.716Z,19.17
2019-04-29T10:09:00.651Z,19.86
2019-04-29T10:11:32.133Z,21.78
2019-04-29T10:14:02.015Z,24.36
2019-04-29T10:16:39.453Z,25.97
2019-04-29T10:19:27.371Z,27.90
2019-04-29T10:21:57.261Z,27.29
2019-04-29T10:24:27.149Z,27.32
2019-04-29T10:26:57.064Z,27.82
2019-04-29T10:29:28.815Z,29.92
2019-04-29T10:32:02.439Z,29.22
2019-04-29T10:34:31.522Z,28.44
2019-04-29T10:37:01.974Z,27.72
2019-04-29T10:39:42.580Z,26.80
2019-04-29T10:42:14.062Z,26.08
2019-04-29T10:45:03.393Z,25.14
2019-04-29T10:47:40.661Z,24.24
2019-04-29T10:50:18.099Z,23.63
2019-04-29T10:52:47.971Z,23.27
2019-04-29T10:55:18.799Z,22.66
2019-04-29T10:57:49.769Z,22.10
2019-04-29T11:00:24.396Z,21.61
2019-04-29T11:02:54.363Z,21.11
2019-04-29T11:05:34.754Z,21.17
2019-04-29T11:08:09.988Z,21.45
2019-04-29T11:10:40.099Z,22.02
2019-04-29T11:13:10.036Z,22.43
2019-04-29T11:15:39.977Z,22.45
2019-04-29T11:18:09.809Z,22.27
2019-04-29T11:20:39.643Z,21.99
2019-04-29T11:23:17.881Z,21.65
2019-04-29T11:25:52.911Z,21.19
2019-04-29T11:28:22.774Z,20.88
2019-04-29T11:30:52.619Z,20.74
2019-04-29T11:33:35.622Z,20.82
2019-04-29T11:36:12.367Z,20.95
2019-04-29T11:38:42.209Z,20.97
2019-04-29T11:41:19.280Z,21.05
2019-04-29T11:43:46.595Z,21.28
2019-04-29T11:46:15.704Z,21.37
2019-04-29T11:48:46.585Z,21.30
2019-04-29T11:51:18.200Z,21.11
2019-04-29T11:53:48.169Z,20.98
2019-04-29T11:56:18.025Z,20.82
2019-04-29T11:58:58.404Z,20.48
2019-04-29T12:01:50.877Z,20.09
2019-04-29T12:04:22.259Z,19.90
2019-04-29T12:06:56.402Z,19.92
2019-04-29T12:09:25.447Z,19.97
2019-04-29T12:11:55.213Z,20.03
2019-04-29T12:14:41.777Z,20.12
2019-04-29T12:17:18.877Z,20.08
2019-04-29T12:19:50.393Z,19.94
2019-04-29T12:22:30.120Z,19.78
2019-04-29T12:24:51.880Z,20.31
2019-04-29T12:27:21.825Z,20.82
2019-04-29T12:29:54.365Z,21.23
2019-04-29T12:32:26.366Z,21.43
2019-04-29T12:35:07.084Z,21.80
2019-04-29T12:37:38.562Z,22.19
2019-04-29T12:40:26.460Z,22.47
2019-04-29T12:43:11.214Z,22.44
2019-04-29T12:45:43.033Z,22.82
2019-04-29T12:48:23.949Z,22.18
2019-04-29T12:50:44.348Z,22.65
2019-04-29T12:53:15.257Z,23.36
2019-04-29T12:55:50.281Z,23.56
2019-04-29T12:58:19.245Z,23.45
2019-04-29T13:00:56.381Z,23.38
2019-04-29T13:03:25.789Z,23.78
2019-04-29T13:05:58.753Z,23.46
2019-04-29T13:08:45.550Z,24.81
2019-04-29T13:11:19.194Z,24.87
2019-04-29T13:13:47.120Z,24.89
2019-04-29T13:16:23.269Z,23.94
2019-04-29T13:19:11.888Z,23.02
2019-04-29T13:21:39.509Z,22.92
2019-04-29T13:24:22.485Z,23.09
2019-04-29T13:26:42.974Z,23.43
2019-04-29T13:29:26.285Z,23.43
2019-04-29T13:31:44.110Z,22.96
2019-04-29T13:34:24.182Z,22.60
2019-04-29T13:36:57.471Z,22.15
2019-04-29T13:39:18.768Z,21.46
2019-04-29T13:41:57.534Z,20.66
2019-04-29T13:44:20.408Z,20.13
2019-04-29T13:47:06.954Z,19.72
2019-04-29T13:49:38.624Z,19.40
2019-04-29T13:52:08.637Z,19.12
2019-04-29T13:54:42.258Z,18.84
2019-04-29T13:57:15.589Z,18.63
2019-04-29T13:59:49.277Z,18.48
2019-04-29T14:02:22.733Z,18.07
2019-04-29T14:05:00.033Z,17.92
2019-04-29T14:07:28.744Z,17.74
2019-04-29T14:09:58.574Z,17.53
2019-04-29T14:15:00.316Z,17.49
2019-04-29T14:17:31.771Z,17.35
2019-04-29T14:20:01.760Z,17.30
2019-04-29T14:22:32.670Z,16.97
2019-04-29T14:25:02.665Z,16.82
2019-04-29T14:27:32.563Z,16.42
2019-04-29T14:30:03.069Z,16.23
2019-04-29T14:32:38.051Z,16.25
2019-04-29T14:35:11.733Z,16.28
2019-04-29T14:37:53.980Z,16.24
2019-04-29T14:40:11.986Z,16.07
2019-04-29T14:42:58.442Z,15.92
2019-04-29T14:45:47.504Z,15.88
2019-04-29T14:48:42.278Z,15.74
2019-04-29T14:51:06.416Z,15.69
2019-04-29T14:53:36.335Z,15.51
2019-04-29T14:56:06.163Z,15.60
2019-04-29T14:58:35.939Z,15.84
2019-04-29T15:01:08.709Z,15.96
2019-04-29T15:03:52.443Z,16.20
2019-04-29T15:06:22.373Z,16.34
2019-04-29T15:08:52.132Z,16.07
2019-04-29T15:11:31.374Z,16.06
2019-04-29T15:13:56.994Z,15.93
2019-04-29T15:16:35.102Z,15.88
2019-04-29T15:19:22.901Z,15.58
2019-04-29T15:21:54.449Z,15.34
2019-04-29T15:24:27.458Z,15.07
2019-04-29T15:26:55.760Z,14.99
2019-04-29T15:29:25.576Z,14.74
2019-04-29T15:31:55.506Z,14.79
2019-04-29T15:34:25.390Z,14.81
2019-04-29T15:36:55.266Z,14.83
2019-04-29T15:39:25.978Z,14.77
2019-04-29T15:41:56.348Z,14.53
2019-04-29T15:44:26.158Z,14.61
2019-04-29T15:46:56.067Z,14.34
2019-04-29T15:49:26.562Z,13.99
2019-04-29T15:51:56.384Z,13.88
2019-04-29T15:54:26.411Z,13.67
2019-04-29T15:56:56.215Z,13.60
2019-04-29T15:59:26.051Z,13.58
2019-04-29T16:01:59.210Z,13.51
2019-04-29T16:04:47.322Z,13.59
2019-04-29T16:07:21.161Z,13.63
2019-04-29T16:10:01.894Z,13.75
2019-04-29T16:12:45.373Z,13.83
2019-04-29T16:15:15.601Z,13.74
2019-04-29T16:17:45.447Z,13.60
2019-04-29T16:20:15.400Z,13.41
2019-04-29T16:22:45.263Z,13.18
2019-04-29T16:25:15.108Z,13.10
2019-04-29T16:27:51.564Z,13.01
2019-04-29T16:30:19.018Z,12.91
2019-04-29T16:32:49.084Z,13.01
2019-04-29T16:35:23.649Z,13.05
2019-04-29T16:37:50.633Z,13.05
2019-04-29T16:40:22.239Z,13.01
2019-04-29T16:43:02.829Z,13.05
2019-04-29T16:45:34.283Z,13.01
2019-04-29T16:48:04.739Z,12.95
2019-04-29T16:50:34.564Z,12.93
2019-04-29T16:53:04.503Z,12.89
2019-04-29T16:55:36.025Z,12.55
2019-04-29T16:58:07.739Z,12.28
2019-04-29T17:00:37.854Z,12.14
2019-04-29T17:03:07.760Z,12.10
2019-04-29T17:05:37.808Z,12.08
2019-04-29T17:08:09.239Z,12.06
2019-04-29T17:10:50.071Z,12.09
2019-04-29T17:13:23.745Z,12.21
2019-04-29T17:15:52.582Z,12.16
2019-04-29T17:18:23.243Z,12.18
2019-04-29T17:20:53.180Z,12.17
2019-04-29T17:23:24.349Z,12.17
2019-04-29T17:25:54.503Z,12.16
2019-04-29T17:28:28.947Z,12.10
2019-04-29T17:31:02.554Z,12.07
2019-04-29T17:33:49.691Z,12.13
2019-04-29T17:36:22.937Z,12.00
2019-04-29T17:38:47.532Z,11.97
2019-04-29T17:41:18.972Z,11.96
2019-04-29T17:44:05.649Z,11.87
2019-04-29T17:46:46.718Z,11.84
2019-04-29T17:49:29.357Z,11.75
2019-04-29T17:52:02.432Z,11.71
2019-04-29T17:54:32.213Z,11.63
2019-04-29T17:57:25.638Z,11.50
2019-04-29T18:00:00.526Z,11.45
2019-04-29T18:02:37.246Z,11.44
2019-04-29T18:05:16.740Z,11.50
2019-04-29T18:08:02.093Z,11.63
2019-04-29T18:10:34.828Z,11.70
2019-04-29T18:13:06.527Z,11.71
2019-04-29T18:15:51.693Z,11.75
2019-04-29T18:18:16.986Z,11.59
2019-04-29T18:21:03.138Z,11.45
2019-04-29T18:23:40.562Z,11.40
2019-04-29T18:26:28.197Z,11.44
2019-04-29T18:29:03.560Z,11.36
2019-04-29T18:31:31.902Z,11.39
2019-04-29T18:34:01.799Z,11.45
2019-04-29T18:36:31.644Z,11.52
2019-04-29T18:39:01.555Z,11.43
2019-04-29T18:41:33.032Z,11.46
2019-04-29T18:44:04.877Z,11.43
2019-04-29T18:46:35.229Z,11.48
2019-04-29T18:49:07.095Z,11.56
2019-04-29T18:51:36.717Z,11.51
2019-04-29T18:54:06.501Z,11.48
2019-04-29T18:56:37.819Z,11.45
2019-04-29T18:59:07.742Z,11.46
2019-04-29T19:01:38.489Z,11.44
2019-04-29T19:04:16.076Z,11.46
2019-04-29T19:06:41.626Z,11.43
2019-04-29T19:09:19.964Z,11.40
2019-04-29T19:11:46.318Z,11.38
2019-04-29T19:14:20.612Z,11.29
2019-04-29T19:16:52.706Z,11.27
2019-04-29T19:19:20.576Z,11.33
2019-04-29T19:21:50.414Z,11.23
2019-04-29T19:24:20.230Z,11.17
2019-04-29T19:26:55.735Z,11.18
2019-04-29T19:29:21.690Z,11.03
2019-04-29T19:31:51.669Z,11.08
2019-04-29T19:34:21.682Z,11.02
2019-04-29T19:36:55.766Z,10.99
2019-04-29T19:39:25.164Z,10.92
2019-04-29T19:41:55.718Z,10.94
2019-04-29T19:44:26.396Z,10.95
2019-04-29T19:46:59.196Z,10.93
2019-04-29T19:49:28.851Z,10.86
2019-04-29T19:51:58.741Z,10.84
2019-04-29T19:54:28.708Z,10.93
2019-04-29T19:57:03.608Z,10.88
2019-04-29T19:59:30.949Z,10.88
2019-04-29T20:02:05.833Z,10.79
2019-04-29T20:04:37.659Z,10.69
2019-04-29T20:07:10.342Z,10.54
2019-04-29T20:09:40.389Z,10.42
2019-04-29T20:12:13.251Z,10.31
2019-04-29T20:14:42.761Z,10.29
2019-04-29T20:17:31.258Z,10.27
2019-04-29T20:20:09.281Z,10.28
2019-04-29T20:22:43.515Z,10.41
2019-04-29T20:25:11.048Z,10.53
2019-04-29T20:27:43.206Z,10.47
2019-04-29T20:30:19.294Z,10.44
2019-04-29T20:32:46.056Z,10.45
2019-04-29T20:35:18.271Z,10.46
2019-04-29T20:37:51.958Z,10.52
2019-04-29T20:40:19.389Z,10.64
2019-04-29T20:42:49.571Z,10.76
2019-04-29T20:45:20.140Z,10.81
2019-04-29T20:47:51.044Z,10.81
2019-04-29T20:50:20.916Z,10.83
2019-04-29T20:53:02.523Z,10.85
2019-04-29T20:55:36.655Z,10.94
2019-04-29T20:58:06.379Z,11.02
2019-04-29T21:00:37.868Z,11.02
2019-04-29T21:03:09.502Z,11.04
2019-04-29T21:05:47.506Z,11.09
2019-04-29T21:08:16.442Z,11.16
2019-04-29T21:10:44.411Z,11.19
2019-04-29T21:13:19.931Z,11.27
2019-04-29T21:15:55.568Z,11.29
2019-04-29T21:18:27.074Z,11.29
2019-04-29T21:20:59.676Z,11.28
2019-04-29T21:23:31.495Z,11.30
2019-04-29T21:26:00.523Z,11.30
2019-04-29T21:28:35.544Z,11.29
2019-04-29T21:31:05.128Z,11.31
2019-04-29T21:33:35.497Z,11.38
2019-04-29T21:36:15.991Z,11.40
2019-04-29T21:38:48.638Z,11.40
2019-04-29T21:41:21.760Z,11.41
2019-04-29T21:43:54.536Z,11.40
2019-04-29T21:46:29.137Z,11.40
2019-04-29T21:48:56.248Z,11.41
2019-04-29T21:51:26.065Z,11.41
2019-04-29T21:53:56.114Z,11.36
2019-04-29T21:56:25.932Z,11.26
2019-04-29T21:58:55.731Z,11.28
2019-04-29T22:01:29.468Z,11.29
2019-04-29T22:03:57.682Z,11.36
2019-04-29T22:06:29.138Z,11.33
2019-04-29T22:09:01.419Z,11.31
2019-04-29T22:11:36.123Z,11.34
2019-04-29T22:14:05.445Z,11.31
2019-04-29T22:16:35.709Z,11.25
2019-04-29T22:19:05.565Z,11.24
2019-04-29T22:21:36.021Z,11.18
2019-04-29T22:24:06.361Z,11.19
2019-04-29T22:26:36.266Z,11.21
2019-04-29T22:29:06.268Z,11.19
2019-04-29T22:31:38.340Z,11.22
2019-04-29T22:34:10.002Z,11.25
2019-04-29T22:36:39.402Z,11.32
2019-04-29T22:39:09.295Z,11.35
2019-04-29T22:41:40.873Z,11.36
2019-04-29T22:44:16.752Z,11.39
2019-04-29T22:46:47.068Z,11.41
2019-04-29T22:49:20.025Z,11.36
2019-04-29T22:51:49.821Z,11.36
2019-04-29T22:54:21.989Z,11.38
2019-04-29T22:56:53.743Z,11.37
2019-04-29T22:59:21.243Z,11.33
2019-04-29T23:01:51.064Z,11.36
2019-04-29T23:04:21.811Z,11.45
2019-04-29T23:06:51.711Z,11.46
2019-04-29T23:09:21.449Z,11.45
2019-04-29T23:11:51.217Z,11.45
2019-04-29T23:14:21.056Z,11.45
2019-04-29T23:16:50.880Z,11.51
2019-04-29T23:19:20.764Z,11.55
2019-04-29T23:22:07.075Z,11.58
2019-04-29T23:24:55.856Z,11.54
2019-04-29T23:27:26.063Z,11.57
2019-04-29T23:29:55.725Z,11.61
2019-04-29T23:32:25.561Z,11.55
2019-04-29T23:34:57.121Z,11.50
2019-04-29T23:37:27.654Z,11.46
2019-04-29T23:39:58.437Z,11.49
2019-04-29T23:42:28.114Z,11.51
2019-04-29T23:44:57.878Z,11.54
2019-04-29T23:47:27.760Z,11.46
2019-04-29T23:49:57.509Z,11.51
2019-04-29T23:52:27.357Z,11.55
2019-04-29T23:54:57.224Z,11.59
2019-04-29T23:57:46.537Z,11.63
